Albert, New Mexico
Current Conditions -  °F | °C
As of 2:53 AM on Friday 28 Nov 2014 (Local Time) from KTCC Reporting Station
Clear Clear  
Wind Chill:   Ceiling: Unl
Heat Index:   Visibility: 10mi
Dew Point: -4°   Wind: 18mph
Humidity: 39%   Direction: 250°WSW
Pressure: 30.12"   Gusts: NA
Location:  35.7181°N, 103.591°W
Report Text: KTCC 280953Z AUTO 25016KT 10SM CLR 09/M04 A3012 RMK AO2 SLP168 T00891044
Loading
Personal Weather Stations






























Interactive Weather Map New forecast layout! Learn more

10-Day Weather Forecast

Advertisements
Track Severe Weather on mobile